Monticello, Georgia
Current Conditions -  °F | °C
As of 9:35 AM on Monday 20 Oct 2014 (Local Time) from KMLJ Reporting Station
Clear Clear  
Wind Chill: 55°   Ceiling: Unl
Heat Index: 55°   Visibility: 10mi
Dew Point: 55°   Wind: 0mph
Humidity: 100%   Direction: NA
Pressure: 30.14"   Gusts: NA
Location:  33.3°N, 83.68°W
Report Text: KMLJ 201335Z AUTO 00000KT 10SM CLR 13/13 A3014 RMK AO2
Loading
Personal Weather Stations






























Interactive Weather Map
Tropical Storm Tracking
New forecast layout! Learn more

10-Day Weather Forecast

Advertisements
Track Severe Weather on mobile